Time;durP1;ratioP1;P1;durP2;ratioP2;P2;SDS_P1;SDS_P2;PMS_P1;PMS_P2;Temp;Humidity;BMP_temperature;BMP_pressure;BME280_temperature;BME280_humidity;BME280_pressure;Samples;Min_cycle;Max_cycle;Signal;HPM_P1;HPM_P2
2021/03/28 00:00:54;;;;;;;;;20.50;17.00;;;;;;;;4986380;28;112062;-75
2021/03/28 00:03:23;;;;;;;;;21.75;18.00;;;;;;;;4988810;28;113545;-74
2021/03/28 00:05:50;;;;;;;;;19.25;17.00;;;;;;;;4984918;28;114430;-73
2021/03/28 00:08:18;;;;;;;;;21.00;20.00;;;;;;;;4987657;28;113286;-74
2021/03/28 00:10:46;;;;;;;;;17.75;17.50;;;;;;;;4989435;28;113618;-74
2021/03/28 00:13:13;;;;;;;;;20.25;18.50;;;;;;;;4985261;28;112093;-74
2021/03/28 00:15:41;;;;;;;;;19.25;18.50;;;;;;;;4987613;28;113258;-74
2021/03/28 00:18:17;;;;;;;;;21.50;18.50;;;;;;;;4986622;28;114061;-74
2021/03/28 00:20:44;;;;;;;;;19.50;16.75;;;;;;;;4987943;28;112905;-74
2021/03/28 00:23:22;;;;;;;;;21.75;18.00;;;;;;;;4986153;28;114172;-73
2021/03/28 00:25:52;;;;;;;;;17.00;17.00;;;;;;;;4988504;28;114439;-73
2021/03/28 00:28:26;;;;;;;;;18.50;16.75;;;;;;;;4982241;28;112008;-74
2021/03/28 00:31:06;;;;;;;;;20.00;18.25;;;;;;;;4989948;28;113593;-74
2021/03/28 00:33:35;;;;;;;;;19.00;17.50;;;;;;;;4992276;28;114055;-73
2021/03/28 00:36:03;;;;;;;;;22.50;21.00;;;;;;;;4985879;28;113411;-74
2021/03/28 00:38:31;;;;;;;;;15.00;15.00;;;;;;;;4987243;28;113908;-75
2021/03/28 00:41:13;;;;;;;;;14.50;12.00;;;;;;;;4986312;28;112073;-74
2021/03/28 00:43:45;;;;;;;;;27.00;22.67;;;;;;;;4986438;28;114573;-74
2021/03/28 00:46:22;;;;;;;;;18.25;17.25;;;;;;;;4986907;28;114072;-74
2021/03/28 00:48:52;;;;;;;;;21.00;18.50;;;;;;;;4988612;28;112275;-74
2021/03/28 00:51:20;;;;;;;;;20.00;18.25;;;;;;;;4989154;28;113523;-74
2021/03/28 00:53:48;;;;;;;;;20.00;18.25;;;;;;;;4983894;28;114106;-74
2021/03/28 00:56:17;;;;;;;;;22.50;19.75;;;;;;;;4991861;28;112248;-74
2021/03/28 00:58:45;;;;;;;;;18.25;17.00;;;;;;;;4984813;28;114755;-74
2021/03/28 01:01:20;;;;;;;;;19.25;18.00;;;;;;;;4986994;28;112353;-74
2021/03/28 01:03:58;;;;;;;;;18.75;18.25;;;;;;;;4984031;28;112963;-74
2021/03/28 01:06:31;;;;;;;;;18.50;17.25;;;;;;;;4977432;28;113114;-74
2021/03/28 01:08:59;;;;;;;;;21.50;16.00;;;;;;;;4988046;28;112002;-74
2021/03/28 01:11:35;;;;;;;;;19.00;17.25;;;;;;;;4984835;28;113717;-74
2021/03/28 01:14:15;;;;;;;;;20.25;17.00;;;;;;;;4985638;28;114047;-73
2021/03/28 01:16:58;;;;;;;;;21.25;17.25;;;;;;;;4989198;28;112386;-73
2021/03/28 01:19:41;;;;;;;;;19.75;16.50;;;;;;;;4987306;28;114796;-74
2021/03/28 01:22:09;;;;;;;;;18.50;14.75;;;;;;;;4993612;28;113434;-74
2021/03/28 01:24:39;;;;;;;;;18.75;17.00;;;;;;;;4985573;28;112178;-74
2021/03/28 01:27:19;;;;;;;;;18.50;14.75;;;;;;;;4985546;28;114141;-74
2021/03/28 01:29:47;;;;;;;;;17.75;16.00;;;;;;;;4987147;28;112344;-74
2021/03/28 01:32:18;;;;;;;;;16.00;16.00;;;;;;;;4984683;28;113657;-74
2021/03/28 01:34:48;;;;;;;;;22.00;17.00;;;;;;;;4986314;28;114158;-74
2021/03/28 01:37:18;;;;;;;;;17.50;15.25;;;;;;;;4984721;28;112311;-73
2021/03/28 01:39:46;;;;;;;;;19.50;18.00;;;;;;;;4990020;28;113413;-73
2021/03/28 01:42:18;;;;;;;;;19.00;15.67;;;;;;;;4984911;28;111947;-74
2021/03/28 01:44:49;;;;;;;;;18.00;15.33;;;;;;;;4987006;28;113512;-73
2021/03/28 01:47:25;;;;;;;;;17.67;15.67;;;;;;;;4983867;28;112899;-74
2021/03/28 01:50:08;;;;;;;;;9.00;6.33;;;;;;;;4988585;28;113591;-74
2021/03/28 01:52:38;;;;;;;;;20.25;16.50;;;;;;;;4987892;28;113570;-73
2021/03/28 01:55:09;;;;;;;;;15.00;13.00;;;;;;;;4985016;28;114545;-73
2021/03/28 01:57:47;;;;;;;;;17.67;17.00;;;;;;;;4984925;28;112154;-75
2021/03/28 02:00:28;;;;;;;;;22.67;18.00;;;;;;;;4986828;28;113724;-74
2021/03/28 02:02:58;;;;;;;;;17.67;17.00;;;;;;;;4991027;28;114137;-74
2021/03/28 02:05:30;;;;;;;;;19.33;16.67;;;;;;;;4983976;28;113533;-73
2021/03/28 02:08:02;;;;;;;;;17.00;15.33;;;;;;;;4986409;28;114052;-73
2021/03/28 02:10:42;;;;;;;;;21.33;17.00;;;;;;;;4984635;28;111981;-75
2021/03/28 02:13:14;;;;;;;;;18.33;15.33;;;;;;;;4984806;28;113580;-73
2021/03/28 02:15:46;;;;;;;;;21.33;17.67;;;;;;;;4985023;28;114551;-73
2021/03/28 02:18:21;;;;;;;;;17.33;17.33;;;;;;;;4984414;28;111976;-74
2021/03/28 02:20:51;;;;;;;;;19.33;17.00;;;;;;;;4987455;28;113453;-73
2021/03/28 02:23:21;;;;;;;;;18.33;15.00;;;;;;;;4986976;28;114610;-73
2021/03/28 02:25:51;;;;;;;;;18.00;16.33;;;;;;;;4991222;28;112018;-73
2021/03/28 02:28:19;;;;;;;;;17.67;16.00;;;;;;;;4986675;28;114024;-73
2021/03/28 02:30:59;;;;;;;;;19.67;17.33;;;;;;;;4987247;28;112052;-73
2021/03/28 02:33:28;;;;;;;;;17.00;17.00;;;;;;;;4990613;28;113438;-74
2021/03/28 02:35:58;;;;;;;;;23.00;17.67;;;;;;;;4986584;28;114382;-75
2021/03/28 02:38:31;;;;;;;;;18.00;18.00;;;;;;;;4989639;28;112327;-75
2021/03/28 02:41:03;;;;;;;;;18.67;16.00;;;;;;;;4988103;28;114108;-73
2021/03/28 02:43:33;;;;;;;;;18.67;16.33;;;;;;;;4988051;28;114029;-73
2021/03/28 02:46:09;;;;;;;;;23.67;17.33;;;;;;;;4987670;28;112073;-74
2021/03/28 02:48:58;;;;;;;;;20.33;17.33;;;;;;;;4991496;28;113512;-74
2021/03/28 02:51:39;;;;;;;;;18.00;14.00;;;;;;;;4990543;28;111940;-77
2021/03/28 02:54:16;;;;;;;;;21.00;15.33;;;;;;;;4990217;28;115017;-77
2021/03/28 02:57:21;;;;;;;;;17.67;16.67;;;;;;;;4989534;28;114019;-77
2021/03/28 02:59:51;;;;;;;;;17.33;17.33;;;;;;;;4954097;28;112223;-77
2021/03/28 03:02:35;;;;;;;;;20.00;17.67;;;;;;;;4952704;28;114082;-78
2021/03/28 03:05:06;;;;;;;;;18.67;16.00;;;;;;;;4974006;28;114024;-77
2021/03/28 03:07:46;;;;;;;;;18.00;16.67;;;;;;;;4986896;28;112452;-76
2021/03/28 03:10:31;;;;;;;;;14.00;13.67;;;;;;;;4988742;28;113516;-76
2021/03/28 03:13:03;;;;;;;;;17.33;14.67;;;;;;;;4995592;28;114092;-76
2021/03/28 03:15:34;;;;;;;;;14.00;12.00;;;;;;;;4987992;28;113486;-77
2021/03/28 03:18:18;;;;;;;;;20.33;15.33;;;;;;;;4997544;28;114869;-75
2021/03/28 03:20:59;;;;;;;;;17.00;14.00;;;;;;;;4989884;28;111892;-75
2021/03/28 03:23:50;;;;;;;;;13.33;12.67;;;;;;;;4991089;28;113737;-76
2021/03/28 03:26:35;;;;;;;;;16.00;14.00;;;;;;;;4988022;28;114019;-76
2021/03/28 03:29:10;;;;;;;;;14.00;14.00;;;;;;;;4988613;28;111977;-75
2021/03/28 03:31:42;;;;;;;;;13.00;10.67;;;;;;;;4988860;28;113509;-75
2021/03/28 03:34:23;;;;;;;;;15.00;14.67;;;;;;;;4990310;28;114647;-76
2021/03/28 03:36:57;;;;;;;;;22.67;17.00;;;;;;;;4990972;28;113316;-76
2021/03/28 03:39:32;;;;;;;;;23.00;19.33;;;;;;;;4989750;28;114379;-76
2021/03/28 03:42:07;;;;;;;;;19.33;17.00;;;;;;;;4987127;28;112137;-76
2021/03/28 03:44:48;;;;;;;;;20.00;19.00;;;;;;;;4986959;28;113633;-75
2021/03/28 03:47:21;;;;;;;;;18.67;17.67;;;;;;;;4979069;28;113878;-75
2021/03/28 03:50:10;;;;;;;;;19.33;18.33;;;;;;;;4989783;28;111894;-76
2021/03/28 03:52:54;;;;;;;;;18.67;17.67;;;;;;;;4989956;28;113175;-75
2021/03/28 03:55:25;;;;;;;;;22.00;17.00;;;;;;;;4989753;28;114612;-76
2021/03/28 03:57:54;;;;;;;;;19.33;14.33;;;;;;;;4990026;28;112080;-75
2021/03/28 04:00:24;;;;;;;;;23.00;19.00;;;;;;;;4988577;28;115466;-74
2021/03/28 04:02:53;;;;;;;;;22.00;18.67;;;;;;;;4986400;28;111894;-74
2021/03/28 04:05:29;;;;;;;;;17.00;15.00;;;;;;;;4988992;28;113701;-74
2021/03/28 04:08:07;;;;;;;;;19.67;17.00;;;;;;;;4986189;28;114103;-75
2021/03/28 04:10:36;;;;;;;;;19.00;15.67;;;;;;;;4986845;28;111997;-75
2021/03/28 04:13:24;;;;;;;;;18.00;17.67;;;;;;;;4987250;28;113686;-75
2021/03/28 04:16:04;;;;;;;;;18.00;17.00;;;;;;;;4989239;28;113964;-76
2021/03/28 04:18:38;;;;;;;;;17.00;14.00;;;;;;;;4987115;28;111969;-76
2021/03/28 04:21:12;;;;;;;;;19.00;19.00;;;;;;;;4989691;28;114623;-75
2021/03/28 04:23:49;;;;;;;;;17.33;17.33;;;;;;;;4993692;28;114076;-75
2021/03/28 04:26:23;;;;;;;;;18.33;18.00;;;;;;;;4989575;28;113402;-74
2021/03/28 04:28:53;;;;;;;;;18.67;18.00;;;;;;;;4988542;28;114245;-76
2021/03/28 04:31:40;;;;;;;;;17.00;16.33;;;;;;;;4986161;28;111692;-75
2021/03/28 04:34:09;;;;;;;;;19.00;18.00;;;;;;;;4976703;28;114440;-76
2021/03/28 04:36:39;;;;;;;;;20.00;17.00;;;;;;;;4987049;28;114332;-74
2021/03/28 04:39:16;;;;;;;;;20.00;19.00;;;;;;;;4986772;28;111970;-75
2021/03/28 04:42:06;;;;;;;;;18.00;16.67;;;;;;;;4988107;28;113836;-75
2021/03/28 04:44:50;;;;;;;;;17.33;15.67;;;;;;;;4935914;28;114106;-75
2021/03/28 04:47:30;;;;;;;;;18.00;14.67;;;;;;;;4989118;28;113657;-75
2021/03/28 04:50:20;;;;;;;;;19.00;16.67;;;;;;;;4988201;28;114002;-75
2021/03/28 04:53:03;;;;;;;;;18.67;18.67;;;;;;;;4950524;28;112091;-76
2021/03/28 04:55:48;;;;;;;;;20.00;18.00;;;;;;;;4987818;28;113810;-75
2021/03/28 04:58:22;;;;;;;;;20.00;19.00;;;;;;;;4984172;28;112537;-74
2021/03/28 05:00:55;;;;;;;;;21.33;19.00;;;;;;;;4988787;28;112509;-76
2021/03/28 05:03:36;;;;;;;;;18.00;17.00;;;;;;;;4985321;28;114000;-76
2021/03/28 05:06:13;;;;;;;;;21.00;19.00;;;;;;;;4985871;28;114578;-75
2021/03/28 05:09:00;;;;;;;;;19.00;18.00;;;;;;;;4991900;28;112270;-76
2021/03/28 05:11:44;;;;;;;;;19.00;17.33;;;;;;;;4987817;28;114094;-76
2021/03/28 05:14:32;;;;;;;;;18.67;18.67;;;;;;;;4987973;28;111936;-76
2021/03/28 05:17:07;;;;;;;;;19.67;17.33;;;;;;;;4988626;28;113870;-76
2021/03/28 05:19:57;;;;;;;;;20.00;19.00;;;;;;;;4985974;28;114399;-77
2021/03/28 05:22:44;;;;;;;;;18.33;18.00;;;;;;;;4988530;28;113057;-77
2021/03/28 05:25:34;;;;;;;;;16.67;15.67;;;;;;;;4988141;28;114036;-76
2021/03/28 05:28:18;;;;;;;;;22.00;22.00;;;;;;;;4988161;28;114233;-75
2021/03/28 05:30:59;;;;;;;;;26.33;20.33;;;;;;;;4988970;28;112033;-76
2021/03/28 05:33:44;;;;;;;;;19.00;19.00;;;;;;;;4983000;28;113560;-76
2021/03/28 05:36:24;;;;;;;;;18.67;16.67;;;;;;;;4985471;28;112102;-76
2021/03/28 05:39:11;;;;;;;;;19.00;19.00;;;;;;;;4988892;28;113646;-75
2021/03/28 05:41:55;;;;;;;;;22.33;20.33;;;;;;;;4968794;28;114418;-75
2021/03/28 05:44:42;;;;;;;;;18.33;17.00;;;;;;;;4988278;28;111867;-75
2021/03/28 05:47:25;;;;;;;;;17.00;14.00;;;;;;;;4983190;28;113664;-75
2021/03/28 05:49:56;;;;;;;;;18.00;17.67;;;;;;;;4987465;28;113217;-74
2021/03/28 05:52:34;;;;;;;;;22.33;18.00;;;;;;;;4984673;28;112756;-76
2021/03/28 05:55:21;;;;;;;;;19.00;16.67;;;;;;;;4989428;28;113599;-75
2021/03/28 05:57:55;;;;;;;;;20.00;19.67;;;;;;;;4988474;28;112138;-75
2021/03/28 06:00:33;;;;;;;;;22.33;17.67;;;;;;;;4988216;28;113541;-76
2021/03/28 06:03:15;;;;;;;;;21.33;19.67;;;;;;;;4984725;28;114116;-75
2021/03/28 06:05:56;;;;;;;;;28.33;21.00;;;;;;;;4983895;28;112290;-75
2021/03/28 06:08:50;;;;;;;;;24.00;18.67;;;;;;;;4991496;28;113607;-75
2021/03/28 06:11:37;;;;;;;;;23.00;23.00;;;;;;;;4985725;28;114001;-75
2021/03/28 06:14:36;;;;;;;;;28.00;23.00;;;;;;;;4983069;28;112046;-74
2021/03/28 06:17:08;;;;;;;;;22.00;20.33;;;;;;;;4956214;28;113842;-76
2021/03/28 06:19:59;;;;;;;;;23.67;22.67;;;;;;;;4959813;28;114078;-75
2021/03/28 06:22:51;;;;;;;;;21.33;20.33;;;;;;;;4977894;28;113553;-76
2021/03/28 06:25:36;;;;;;;;;18.00;16.33;;;;;;;;4990867;28;113902;-77
2021/03/28 06:28:18;;;;;;;;;25.00;23.67;;;;;;;;4993852;28;113346;-77
2021/03/28 06:31:08;;;;;;;;;26.33;22.00;;;;;;;;4991220;28;114385;-80
2021/03/28 06:33:51;;;;;;;;;25.67;25.67;;;;;;;;4974806;28;114292;-78
2021/03/28 06:36:29;;;;;;;;;26.33;24.00;;;;;;;;4970435;28;112387;-79
2021/03/28 06:39:14;;;;;;;;;30.33;25.67;;;;;;;;4989112;28;113563;-78
2021/03/28 06:42:04;;;;;;;;;28.00;25.00;;;;;;;;4987172;28;113975;-76
2021/03/28 06:44:40;;;;;;;;;29.67;27.00;;;;;;;;4995756;28;111999;-77
2021/03/28 06:47:24;;;;;;;;;38.67;29.67;;;;;;;;4990995;28;114298;-78
2021/03/28 06:50:17;;;;;;;;;29.00;28.00;;;;;;;;4990865;28;112808;-78
2021/03/28 06:52:51;;;;;;;;;24.00;23.00;;;;;;;;4967667;28;113233;-79
2021/03/28 06:55:28;;;;;;;;;21.33;21.33;;;;;;;;4992489;28;114013;-77
2021/03/28 06:58:06;;;;;;;;;26.33;25.00;;;;;;;;4990370;28;112190;-77
2021/03/28 07:01:06;;;;;;;;;30.00;29.00;;;;;;;;4988418;28;113637;-74
2021/03/28 07:03:46;;;;;;;;;30.67;29.00;;;;;;;;4990480;28;114424;-75
2021/03/28 07:06:20;;;;;;;;;22.33;21.00;;;;;;;;4990479;28;112057;-76
2021/03/28 07:09:00;;;;;;;;;30.67;28.67;;;;;;;;4994458;28;113648;-74
2021/03/28 07:11:34;;;;;;;;;25.00;23.67;;;;;;;;4991999;28;112303;-74
2021/03/28 07:14:14;;;;;;;;;20.00;20.00;;;;;;;;4990060;28;113708;-74
2021/03/28 07:16:59;;;;;;;;;27.33;25.67;;;;;;;;4986200;28;115276;-74
2021/03/28 07:19:43;;;;;;;;;20.00;20.00;;;;;;;;4989439;28;112049;-73
2021/03/28 07:22:19;;;;;;;;;26.67;25.00;;;;;;;;4988181;28;113590;-76
2021/03/28 07:24:59;;;;;;;;;25.33;25.00;;;;;;;;4988307;28;113572;-82
2021/03/28 07:27:38;;;;;;;;;28.67;27.00;;;;;;;;4988981;28;112438;-81
2021/03/28 07:30:20;;;;;;;;;25.67;23.67;;;;;;;;4988250;28;113466;-82
2021/03/28 07:33:01;;;;;;;;;29.00;24.67;;;;;;;;4992449;28;114005;-78
2021/03/28 07:35:52;;;;;;;;;26.67;24.33;;;;;;;;4963714;28;114012;-78
2021/03/28 07:38:48;;;;;;;;;28.00;25.67;;;;;;;;4986715;28;114384;-80
2021/03/28 07:41:48;;;;;;;;;25.33;23.67;;;;;;;;4984833;28;112220;-81
2021/03/28 07:44:37;;;;;;;;;31.33;25.00;;;;;;;;4989497;28;113432;-83
2021/03/28 07:47:30;;;;;;;;;25.00;25.00;;;;;;;;4988467;28;114638;-79
2021/03/28 07:50:17;;;;;;;;;33.67;28.33;;;;;;;;4988378;28;112512;-79
2021/03/28 07:52:54;;;;;;;;;30.00;28.00;;;;;;;;4988975;28;115258;-80
2021/03/28 07:55:27;;;;;;;;;30.33;28.00;;;;;;;;4987914;28;113855;-77
2021/03/28 07:58:04;;;;;;;;;32.00;29.00;;;;;;;;4990084;28;112576;-74
2021/03/28 08:00:37;;;;;;;;;30.33;27.33;;;;;;;;4984698;28;114301;-75
2021/03/28 08:03:21;;;;;;;;;29.00;26.67;;;;;;;;4987602;28;112307;-76
2021/03/28 08:06:07;;;;;;;;;31.67;26.33;;;;;;;;4988259;28;113832;-76
2021/03/28 08:08:45;;;;;;;;;34.33;33.00;;;;;;;;4986017;28;114437;-79
2021/03/28 08:11:25;;;;;;;;;35.67;33.33;;;;;;;;4984532;28;112073;-83
2021/03/28 08:14:15;;;;;;;;;33.00;29.67;;;;;;;;4988301;28;113849;-78
2021/03/28 08:16:56;;;;;;;;;30.67;28.67;;;;;;;;4983339;28;116595;-76
2021/03/28 08:19:31;;;;;;;;;34.00;31.67;;;;;;;;4992183;28;112537;-74
2021/03/28 08:22:04;;;;;;;;;28.25;27.00;;;;;;;;4985205;28;113814;-73
2021/03/28 08:24:44;;;;;;;;;30.00;29.00;;;;;;;;4984941;28;112950;-71
2021/03/28 08:27:40;;;;;;;;;30.25;26.50;;;;;;;;4992098;28;114063;-73
2021/03/28 08:30:18;;;;;;;;;29.25;27.75;;;;;;;;4986480;28;115484;-74
2021/03/28 08:33:03;;;;;;;;;29.75;25.25;;;;;;;;4988229;28;112082;-74
2021/03/28 08:35:38;;;;;;;;;26.50;25.00;;;;;;;;4988096;28;113559;-72
2021/03/28 08:38:20;;;;;;;;;29.25;25.25;;;;;;;;4986718;28;114065;-77
2021/03/28 08:41:02;;;;;;;;;24.00;21.25;;;;;;;;4989364;28;111872;-75
2021/03/28 08:43:46;;;;;;;;;22.50;21.00;;;;;;;;4991617;28;113683;-74
2021/03/28 08:46:20;;;;;;;;;21.25;20.25;;;;;;;;4987933;28;111834;-71
2021/03/28 08:48:49;;;;;;;;;22.25;19.75;;;;;;;;4988411;28;113528;-72
2021/03/28 08:51:33;;;;;;;;;27.75;26.25;;;;;;;;4991277;28;114420;-73
2021/03/28 08:54:08;;;;;;;;;23.25;19.50;;;;;;;;4988400;28;113194;-75
2021/03/28 08:56:55;;;;;;;;;29.25;29.25;;;;;;;;4985931;28;113515;-75
2021/03/28 08:59:28;;;;;;;;;19.75;16.25;;;;;;;;4986899;28;114034;-72
2021/03/28 09:01:58;;;;;;;;;20.50;18.75;;;;;;;;4985015;28;112067;-75
2021/03/28 09:04:31;;;;;;;;;26.25;26.25;;;;;;;;4985258;28;113916;-73
2021/03/28 09:07:05;;;;;;;;;21.25;21.25;;;;;;;;4988373;28;114265;-72
2021/03/28 09:09:38;;;;;;;;;25.00;22.00;;;;;;;;4985135;28;112784;-69
2021/03/28 09:12:11;;;;;;;;;12.25;12.25;;;;;;;;4986834;28;114403;-69
2021/03/28 09:14:49;;;;;;;;;12.25;12.25;;;;;;;;4986284;28;112114;-69
2021/03/28 09:17:20;;;;;;;;;13.75;12.50;;;;;;;;4986730;28;114184;-71
2021/03/28 09:20:02;;;;;;;;;22.50;19.25;;;;;;;;4982910;28;114043;-70
2021/03/28 09:22:34;;;;;;;;;17.75;16.50;;;;;;;;4984410;28;111957;-70
2021/03/28 09:25:04;;;;;;;;;22.75;19.50;;;;;;;;4985524;28;114364;-69
2021/03/28 09:27:33;;;;;;;;;14.50;14.50;;;;;;;;4986425;28;113082;-69
2021/03/28 09:30:07;;;;;;;;;19.75;17.25;;;;;;;;4988713;28;112889;-70
2021/03/28 09:32:48;;;;;;;;;21.50;20.75;;;;;;;;4984725;28;114045;-69
2021/03/28 09:35:23;;;;;;;;;20.75;20.75;;;;;;;;4978596;28;112689;-69
2021/03/28 09:37:52;;;;;;;;;11.00;10.00;;;;;;;;4983627;28;112392;-70
2021/03/28 09:40:25;;;;;;;;;10.33;9.67;;;;;;;;4983227;28;112933;-70
2021/03/28 09:43:09;;;;;;;;;18.75;16.50;;;;;;;;4992512;28;113337;-68
2021/03/28 09:46:05;;;;;;;;;17.50;15.25;;;;;;;;4982900;28;113480;-68
2021/03/28 09:48:38;;;;;;;;;13.00;13.00;;;;;;;;4985920;28;114374;-67
2021/03/28 09:51:14;;;;;;;;;18.00;16.33;;;;;;;;4985959;28;112593;-70
2021/03/28 09:53:45;;;;;;;;;22.33;19.00;;;;;;;;4990152;28;112034;-70
2021/03/28 09:56:32;;;;;;;;;20.00;19.00;;;;;;;;4987387;28;112030;-69
2021/03/28 09:59:09;;;;;;;;;18.00;18.00;;;;;;;;4987305;28;113500;-70
2021/03/28 10:01:44;;;;;;;;;14.33;11.00;;;;;;;;4981654;28;114537;-69
2021/03/28 10:04:19;;;;;;;;;21.00;19.67;;;;;;;;4986573;28;112528;-70
2021/03/28 10:06:49;;;;;;;;;7.33;7.33;;;;;;;;4980123;28;112451;-68
2021/03/28 10:09:18;;;;;;;;;8.67;8.67;;;;;;;;4991833;28;114170;-68
2021/03/28 10:11:48;;;;;;;;;13.67;13.00;;;;;;;;4994525;28;114508;-68
2021/03/28 10:14:23;;;;;;;;;20.00;19.00;;;;;;;;4991310;28;114382;-69
2021/03/28 10:16:58;;;;;;;;;19.33;18.33;;;;;;;;4992062;28;112013;-71
2021/03/28 10:19:26;;;;;;;;;9.67;8.00;;;;;;;;4983449;28;112665;-74
2021/03/28 10:22:11;;;;;;;;;11.67;9.67;;;;;;;;4984668;28;114266;-73
2021/03/28 10:24:58;;;;;;;;;14.33;13.67;;;;;;;;4985541;28;112145;-85
2021/03/28 10:27:55;;;;;;;;;8.00;8.00;;;;;;;;4985586;28;113402;-83
2021/03/28 10:30:27;;;;;;;;;9.33;8.67;;;;;;;;4986313;28;114140;-82
2021/03/28 10:33:01;;;;;;;;;15.33;15.00;;;;;;;;4991586;28;111983;-83
2021/03/28 10:35:31;;;;;;;;;9.00;9.00;;;;;;;;4994396;28;114315;-79
2021/03/28 10:38:12;;;;;;;;;10.67;10.67;;;;;;;;4996772;28;113809;-82
2021/03/28 10:40:44;;;;;;;;;8.67;8.67;;;;;;;;4992190;28;114141;-81
2021/03/28 10:43:30;;;;;;;;;13.00;11.00;;;;;;;;4994222;28;114074;-81
2021/03/28 10:46:09;;;;;;;;;10.25;9.25;;;;;;;;4992241;28;111863;-81
2021/03/28 10:48:59;;;;;;;;;12.75;12.25;;;;;;;;4993316;28;115025;-82
2021/03/28 10:51:43;;;;;;;;;10.00;10.00;;;;;;;;4936017;28;114536;-83
2021/03/28 10:54:30;;;;;;;;;11.75;9.75;;;;;;;;4994910;28;112346;-83
2021/03/28 10:57:13;;;;;;;;;14.00;11.50;;;;;;;;4996052;28;114002;-82
2021/03/28 11:00:00;;;;;;;;;9.00;9.00;;;;;;;;4995163;28;114516;-82
2021/03/28 11:02:45;;;;;;;;;10.00;9.00;;;;;;;;4989143;28;113494;-81
2021/03/28 11:05:41;;;;;;;;;8.00;8.00;;;;;;;;4989238;28;113819;-76
2021/03/28 11:08:17;;;;;;;;;11.00;11.00;;;;;;;;4989871;28;111910;-76
2021/03/28 11:10:59;;;;;;;;;12.00;12.00;;;;;;;;4990034;28;113739;-75
2021/03/28 11:13:39;;;;;;;;;11.00;11.00;;;;;;;;4985566;28;114080;-74
2021/03/28 11:16:12;;;;;;;;;10.00;10.00;;;;;;;;4985576;28;112305;-74
2021/03/28 11:18:53;;;;;;;;;10.50;10.50;;;;;;;;4989945;28;113532;-74
2021/03/28 11:21:25;;;;;;;;;10.25;9.50;;;;;;;;4988112;28;114078;-76
2021/03/28 11:24:06;;;;;;;;;11.50;9.50;;;;;;;;4986521;28;112052;-77
2021/03/28 11:26:57;;;;;;;;;9.75;9.75;;;;;;;;4988200;28;113851;-76
2021/03/28 11:29:38;;;;;;;;;11.50;10.75;;;;;;;;4989224;28;112015;-77
2021/03/28 11:32:16;;;;;;;;;10.50;8.00;;;;;;;;4985601;28;113813;-78
2021/03/28 11:34:53;;;;;;;;;12.25;10.00;;;;;;;;4989051;28;114202;-75
2021/03/28 11:37:41;;;;;;;;;10.00;9.75;;;;;;;;4991264;28;112493;-75
2021/03/28 11:40:27;;;;;;;;;9.50;9.50;;;;;;;;4992105;28;114628;-75
2021/03/28 11:43:14;;;;;;;;;7.25;6.00;;;;;;;;4989457;28;114713;-70
2021/03/28 11:45:42;;;;;;;;;8.75;8.50;;;;;;;;4984772;28;112175;-69
2021/03/28 11:48:22;;;;;;;;;7.25;7.25;;;;;;;;4988987;28;113721;-70
2021/03/28 11:50:49;;;;;;;;;11.00;9.00;;;;;;;;4994397;28;114070;-70
2021/03/28 11:53:20;;;;;;;;;8.25;8.25;;;;;;;;4989392;28;113615;-70
2021/03/28 11:55:48;;;;;;;;;11.00;8.75;;;;;;;;4986446;28;114708;-71
2021/03/28 11:58:31;;;;;;;;;10.50;9.00;;;;;;;;4984922;28;112241;-69
2021/03/28 12:00:58;;;;;;;;;9.00;8.75;;;;;;;;4982939;28;113519;-67
2021/03/28 12:03:26;;;;;;;;;9.50;9.50;;;;;;;;4984351;28;113337;-70
2021/03/28 12:05:53;;;;;;;;;10.25;9.00;;;;;;;;4990621;28;112351;-71
2021/03/28 12:08:24;;;;;;;;;14.50;13.50;;;;;;;;4986487;28;113970;-72
2021/03/28 12:10:50;;;;;;;;;13.50;12.50;;;;;;;;4985572;28;113603;-71
2021/03/28 12:13:35;;;;;;;;;10.50;9.00;;;;;;;;4989883;28;111936;-75
2021/03/28 12:16:04;;;;;;;;;9.75;8.75;;;;;;;;4986617;28;114092;-74
2021/03/28 12:18:48;;;;;;;;;16.00;13.75;;;;;;;;4984222;28;113442;-76
2021/03/28 12:21:26;;;;;;;;;11.00;11.00;;;;;;;;4987190;28;113556;-72
2021/03/28 12:23:58;;;;;;;;;10.75;10.50;;;;;;;;4984935;28;114225;-73
2021/03/28 12:26:28;;;;;;;;;9.50;8.25;;;;;;;;4991115;28;112229;-72
2021/03/28 12:28:59;;;;;;;;;12.75;12.00;;;;;;;;4995530;28;113615;-73
2021/03/28 12:31:33;;;;;;;;;9.00;9.00;;;;;;;;4988298;28;113172;-73
2021/03/28 12:34:23;;;;;;;;;11.50;11.00;;;;;;;;4997338;28;111817;-73
2021/03/28 12:36:50;;;;;;;;;7.25;5.50;;;;;;;;4986519;28;113806;-75
2021/03/28 12:39:21;;;;;;;;;8.75;8.75;;;;;;;;4988275;28;113832;-71
2021/03/28 12:42:07;;;;;;;;;8.25;8.00;;;;;;;;4987302;28;113341;-74
2021/03/28 12:44:39;;;;;;;;;7.75;7.75;;;;;;;;4987247;28;114053;-73
2021/03/28 12:47:09;;;;;;;;;9.00;8.00;;;;;;;;4990918;28;112323;-73
2021/03/28 12:49:43;;;;;;;;;10.00;10.00;;;;;;;;4988078;28;112422;-72
2021/03/28 12:52:18;;;;;;;;;7.75;7.25;;;;;;;;5002512;22;114117;-78
2021/03/28 12:55:17;;;;;;;;;10.00;8.00;;;;;;;;4979948;28;112249;-75
2021/03/28 12:57:44;;;;;;;;;11.00;7.50;;;;;;;;4907135;28;113696;-74
2021/03/28 13:00:15;;;;;;;;;10.00;7.00;;;;;;;;4898191;28;111925;-72
2021/03/28 13:02:43;;;;;;;;;18.75;18.50;;;;;;;;4940636;28;113545;-72
2021/03/28 13:05:19;;;;;;;;;10.25;10.25;;;;;;;;4980076;28;114377;-79
2021/03/28 13:07:46;;;;;;;;;9.75;9.00;;;;;;;;4981934;28;112029;-75
2021/03/28 13:10:19;;;;;;;;;9.00;9.00;;;;;;;;4988256;28;113555;-76
2021/03/28 13:12:46;;;;;;;;;10.50;8.00;;;;;;;;4981537;28;114198;-78
2021/03/28 13:15:14;;;;;;;;;10.50;8.25;;;;;;;;4987678;28;111888;-75
2021/03/28 13:17:40;;;;;;;;;9.50;7.50;;;;;;;;4980638;28;113668;-76
2021/03/28 13:20:22;;;;;;;;;11.00;9.50;;;;;;;;4990819;28;114426;-76
2021/03/28 13:22:50;;;;;;;;;7.00;7.00;;;;;;;;4982319;28;113924;-76
2021/03/28 13:25:21;;;;;;;;;10.50;9.25;;;;;;;;4987123;28;114449;-80
2021/03/28 13:27:48;;;;;;;;;9.00;9.00;;;;;;;;4982374;28;111959;-77
2021/03/28 13:30:21;;;;;;;;;9.00;9.00;;;;;;;;4982816;28;114101;-79
2021/03/28 13:32:48;;;;;;;;;10.00;8.50;;;;;;;;4980066;28;114032;-78
2021/03/28 13:35:26;;;;;;;;;11.00;9.00;;;;;;;;4975863;28;111853;-76
2021/03/28 13:37:54;;;;;;;;;9.50;9.50;;;;;;;;4979648;28;113912;-77
2021/03/28 13:40:25;;;;;;;;;9.50;9.00;;;;;;;;4983336;28;114035;-87
2021/03/28 13:42:54;;;;;;;;;10.75;10.25;;;;;;;;4975349;28;112136;-82
2021/03/28 13:45:28;;;;;;;;;9.00;6.00;;;;;;;;4985659;28;114156;-79
2021/03/28 13:47:55;;;;;;;;;10.50;9.00;;;;;;;;4981352;28;112070;-80
2021/03/28 13:50:35;;;;;;;;;7.75;7.75;;;;;;;;4987315;28;113428;-77
2021/03/28 13:53:02;;;;;;;;;11.50;9.00;;;;;;;;4984447;28;114286;-79
2021/03/28 13:55:32;;;;;;;;;10.00;10.00;;;;;;;;4985661;28;112559;-75
2021/03/28 13:58:07;;;;;;;;;10.00;9.00;;;;;;;;4984974;28;113595;-74
2021/03/28 14:00:34;;;;;;;;;10.25;8.00;;;;;;;;4984577;28;114001;-75
2021/03/28 14:03:13;;;;;;;;;8.00;8.00;;;;;;;;4984950;28;112364;-75
2021/03/28 14:05:41;;;;;;;;;10.50;9.50;;;;;;;;4983384;28;113334;-75
2021/03/28 14:08:12;;;;;;;;;8.50;8.50;;;;;;;;4987288;28;112223;-74
2021/03/28 14:10:46;;;;;;;;;10.00;9.25;;;;;;;;4983660;28;113602;-74
2021/03/28 14:13:16;;;;;;;;;9.00;9.00;;;;;;;;4979478;28;114507;-74
2021/03/28 14:15:43;;;;;;;;;9.75;9.25;;;;;;;;4980161;28;112392;-75
2021/03/28 14:18:39;;;;;;;;;12.50;11.00;;;;;;;;4979983;28;114055;-75
2021/03/28 14:21:23;;;;;;;;;11.25;10.25;;;;;;;;4924301;28;114421;-73
2021/03/28 14:23:51;;;;;;;;;8.75;8.75;;;;;;;;4973275;28;113785;-75
2021/03/28 14:26:35;;;;;;;;;8.50;8.25;;;;;;;;4986139;28;113850;-74
2021/03/28 14:29:01;;;;;;;;;10.00;9.75;;;;;;;;4992712;28;114012;-75
2021/03/28 14:31:29;;;;;;;;;7.00;7.00;;;;;;;;4988072;28;113969;-73
2021/03/28 14:34:07;;;;;;;;;10.00;9.00;;;;;;;;4988341;28;114223;-75
2021/03/28 14:36:50;;;;;;;;;8.25;8.25;;;;;;;;4987077;28;112542;-75
2021/03/28 14:39:33;;;;;;;;;9.50;8.25;;;;;;;;4984302;28;113970;-74
2021/03/28 14:42:02;;;;;;;;;8.50;8.00;;;;;;;;4984123;28;112957;-73
2021/03/28 14:44:46;;;;;;;;;9.75;9.75;;;;;;;;4984292;28;112907;-74
2021/03/28 14:47:21;;;;;;;;;8.00;7.75;;;;;;;;4982949;28;114699;-75
2021/03/28 14:49:51;;;;;;;;;9.00;9.00;;;;;;;;4987586;28;114119;-74
2021/03/28 14:52:46;;;;;;;;;8.00;8.00;;;;;;;;4989223;28;113899;-74
2021/03/28 14:55:21;;;;;;;;;6.00;6.00;;;;;;;;4940171;28;114199;-74
2021/03/28 14:57:54;;;;;;;;;8.00;7.50;;;;;;;;4983960;28;112144;-74
2021/03/28 15:00:24;;;;;;;;;7.25;7.25;;;;;;;;4989086;28;113635;-74
2021/03/28 15:03:05;;;;;;;;;7.75;7.75;;;;;;;;4987030;28;114166;-75
2021/03/28 15:05:47;;;;;;;;;8.25;7.00;;;;;;;;4987376;28;112530;-74